Time,TemperatureF,DewpointF,PressureIn,WindDirection,WindDirectionDegrees,WindSpeedMPH,WindSpeedGustMPH,Humidity,HourlyPrecipIn,Conditions,Clouds,dailyrainin,SoftwareType,DateUTC
2013-02-25 00:00:00,30.4,1.2,30.06,SW,216,6.0,6.0,28,0.00,,OVC060,0.00,VWS V14.00,2013-02-25 05:00:00,
2013-02-25 00:15:00,30.2,1.0,30.06,SW,216,6.0,6.0,28,0.00,,OVC060,0.00,VWS V14.00,2013-02-25 05:15:00,
2013-02-25 00:30:00,30.0,0.9,30.06,SW,216,6.0,6.0,28,0.00,,OVC060,0.00,VWS V14.00,2013-02-25 05:30:00,
2013-02-25 00:45:00,29.8,0.7,30.09,SW,216,6.0,6.0,28,0.00,,FEW065,0.00,VWS V14.00,2013-02-25 05:45:00,
2013-02-25 01:00:00,30.0,0.9,30.09,SW,216,6.0,6.0,28,0.00,,FEW065,0.00,VWS V14.00,2013-02-25 06:00:00,
2013-02-25 01:15:00,29.8,0.7,30.09,SW,216,6.0,6.0,28,0.00,,FEW065,0.00,VWS V14.00,2013-02-25 06:15:00,
2013-02-25 01:30:00,29.5,0.4,30.09,SW,216,6.0,6.0,28,0.00,,FEW065,0.00,VWS V14.00,2013-02-25 06:30:00,
2013-02-25 01:45:00,28.6,-0.4,30.09,SW,216,6.0,6.0,28,0.00,,OVC055,0.00,VWS V14.00,2013-02-25 06:45:00,
2013-02-25 02:01:00,27.9,-1.0,30.09,SW,216,6.0,6.0,28,0.00,,OVC055,0.00,VWS V14.00,2013-02-25 07:01:00,
2013-02-25 02:15:00,28.0,-0.9,30.09,SW,216,6.0,6.0,28,0.00,,OVC055,0.00,VWS V14.00,2013-02-25 07:15:00,
2013-02-25 02:30:00,28.6,1.1,30.09,SW,216,6.0,6.0,30,0.00,,OVC055,0.00,VWS V14.00,2013-02-25 07:30:00,
2013-02-25 02:46:00,27.7,1.0,30.09,SW,216,6.0,6.0,31,0.00,,OVC060,0.00,VWS V14.00,2013-02-25 07:46:00,
2013-02-25 03:00:00,28.2,1.5,30.09,SW,216,6.0,6.0,31,0.00,,OVC060,0.00,VWS V14.00,2013-02-25 08:00:00,
2013-02-25 03:15:00,28.2,1.5,30.09,SW,216,6.0,6.0,31,0.00,,OVC060,0.00,VWS V14.00,2013-02-25 08:15:00,
2013-02-25 03:30:00,28.4,1.6,30.09,SW,216,6.0,6.0,31,0.00,,OVC060,0.00,VWS V14.00,2013-02-25 08:30:00,
2013-02-25 03:46:00,28.8,2.0,30.09,SW,216,6.0,6.0,31,0.00,,OVC055,0.00,VWS V14.00,2013-02-25 08:46:00,
2013-02-25 04:01:00,28.8,1.2,30.09,SW,216,6.0,6.0,30,0.00,,OVC055,0.00,VWS V14.00,2013-02-25 09:01:00,
2013-02-25 04:16:00,28.4,1.6,30.09,SW,216,6.0,6.0,31,0.00,,OVC055,0.00,VWS V14.00,2013-02-25 09:16:00,
2013-02-25 04:31:00,28.2,1.5,30.09,SW,216,6.0,6.0,31,0.00,,OVC055,0.00,VWS V14.00,2013-02-25 09:31:00,
2013-02-25 04:45:00,28.4,1.6,30.09,SW,216,6.0,6.0,31,0.00,,FEW050,0.00,VWS V14.00,2013-02-25 09:45:00,
2013-02-25 05:00:00,28.2,1.5,30.12,SW,216,6.0,6.0,31,0.00,,FEW050,0.00,VWS V14.00,2013-02-25 10:00:00,
2013-02-25 05:15:00,27.3,0.7,30.12,SW,216,6.0,6.0,31,0.00,,FEW050,0.00,VWS V14.00,2013-02-25 10:15:00,
2013-02-25 05:31:00,26.1,0.2,30.12,SW,216,6.0,6.0,32,0.00,,FEW050,0.00,VWS V14.00,2013-02-25 10:31:00,
2013-02-25 05:45:00,25.0,0.6,30.12,SW,216,6.0,6.0,34,0.00,,FEW050,0.00,VWS V14.00,2013-02-25 10:45:00,
2013-02-25 06:00:00,25.3,1.5,30.12,SW,216,6.0,6.0,35,0.00,,CLR,0.00,VWS V14.00,2013-02-25 11:00:00,
2013-02-25 06:15:00,24.4,0.7,30.12,SW,216,6.0,6.0,35,0.00,,CLR,0.00,VWS V14.00,2013-02-25 11:15:00,
2013-02-25 06:30:00,24.8,2.8,30.15,SW,216,6.0,6.0,38,0.00,,CLR,0.00,VWS V14.00,2013-02-25 11:30:00,
2013-02-25 06:45:00,25.9,3.2,30.15,SW,216,6.0,6.0,37,0.00,,CLR,0.00,VWS V14.00,2013-02-25 11:45:00,
2013-02-25 07:00:00,25.2,2.6,30.15,SW,216,6.0,6.0,37,0.00,,CLR,0.00,VWS V14.00,2013-02-25 12:00:00,
2013-02-25 07:15:00,25.0,2.4,30.15,SW,216,6.0,6.0,37,0.00,,CLR,0.00,VWS V14.00,2013-02-25 12:15:00,
2013-02-25 07:30:00,25.2,3.7,30.15,SW,216,6.0,6.0,39,0.00,,CLR,0.00,VWS V14.00,2013-02-25 12:30:00,
2013-02-25 07:45:00,26.2,5.2,30.15,SW,216,6.0,6.0,40,0.00,,CLR,0.00,VWS V14.00,2013-02-25 12:45:00,
2013-02-25 08:00:00,28.0,5.7,30.18,SW,216,6.0,6.0,38,0.00,,CLR,0.00,VWS V14.00,2013-02-25 13:00:00,
2013-02-25 08:15:00,31.6,9.0,30.18,SW,216,6.0,6.0,38,0.00,,FEW055,0.00,VWS V14.00,2013-02-25 13:15:00,
2013-02-25 08:30:00,33.1,6.4,30.18,SW,216,6.0,6.0,32,0.00,,FEW055,0.00,VWS V14.00,2013-02-25 13:30:00,
2013-02-25 08:45:00,33.8,5.7,30.18,SW,216,6.0,6.0,30,0.00,,FEW055,0.00,VWS V14.00,2013-02-25 13:45:00,
2013-02-25 09:00:00,35.1,6.8,30.18,SW,216,6.0,6.0,30,0.00,,OVC060,0.00,VWS V14.00,2013-02-25 14:00:00,
2013-02-25 09:15:00,35.6,6.5,30.18,SW,216,6.0,6.0,29,0.00,,OVC060,0.00,VWS V14.00,2013-02-25 14:15:00,
2013-02-25 09:30:00,36.7,7.4,30.18,SW,216,6.0,6.0,29,0.00,,OVC060,0.00,VWS V14.00,2013-02-25 14:30:00,
2013-02-25 09:45:00,37.9,6.1,30.18,SW,216,6.0,6.0,26,0.00,,OVC060,0.00,VWS V14.00,2013-02-25 14:45:00,
2013-02-25 10:00:00,38.8,6.9,30.18,SW,216,6.0,6.0,26,0.00,,CLR,0.00,VWS V14.00,2013-02-25 15:00:00,
2013-02-25 10:15:00,39.9,5.1,30.18,SW,216,6.0,6.0,23,0.00,,CLR,0.00,VWS V14.00,2013-02-25 15:15:00,
2013-02-25 10:30:00,41.0,6.1,30.18,SW,216,6.0,6.0,23,0.00,,CLR,0.00,VWS V14.00,2013-02-25 15:30:00,
2013-02-25 10:45:00,40.8,5.9,30.18,SW,216,6.0,6.0,23,0.00,,CLR,0.00,VWS V14.00,2013-02-25 15:45:00,
2013-02-25 11:00:00,43.2,7.9,30.18,SW,216,6.0,6.0,23,0.00,,CLR,0.00,VWS V14.00,2013-02-25 16:00:00,
2013-02-25 11:15:00,42.6,5.4,30.18,SW,216,6.0,6.0,21,0.00,,CLR,0.00,VWS V14.00,2013-02-25 16:15:00,
2013-02-25 11:30:00,43.9,5.4,30.18,SW,216,6.0,6.0,20,0.00,,CLR,0.00,VWS V14.00,2013-02-25 16:30:00,
2013-02-25 11:45:00,46.2,7.4,30.18,SW,216,6.0,6.0,20,0.00,,CLR,0.00,VWS V14.00,2013-02-25 16:45:00,
2013-02-25 12:00:00,44.8,6.2,30.18,SW,216,6.0,6.0,20,0.00,,CLR,0.00,VWS V14.00,2013-02-25 17:00:00,
2013-02-25 12:15:00,42.8,4.5,30.18,SW,216,6.0,6.0,20,0.00,,CLR,0.00,VWS V14.00,2013-02-25 17:15:00,
2013-02-25 12:30:00,45.9,7.1,30.18,SW,216,6.0,6.0,20,0.00,,CLR,0.00,VWS V14.00,2013-02-25 17:30:00,
2013-02-25 12:45:00,45.5,6.8,30.15,SW,216,6.0,6.0,20,0.00,,CLR,0.00,VWS V14.00,2013-02-25 17:45:00,
2013-02-25 13:00:00,46.4,6.4,30.15,SW,216,6.0,6.0,19,0.00,,CLR,0.00,VWS V14.00,2013-02-25 18:00:00,
2013-02-25 13:15:00,47.3,7.1,30.18,SW,216,6.0,6.0,19,0.00,,CLR,0.00,VWS V14.00,2013-02-25 18:15:00,
2013-02-25 13:30:00,46.9,6.8,30.15,SW,216,6.0,6.0,19,0.00,,CLR,0.00,VWS V14.00,2013-02-25 18:30:00,
2013-02-25 13:45:00,46.0,7.2,30.15,SW,216,6.0,6.0,20,0.00,,FEW041,0.00,VWS V14.00,2013-02-25 18:45:00,
2013-02-25 14:00:00,48.4,8.0,30.15,SW,216,6.0,6.0,19,0.00,,FEW041,0.00,VWS V14.00,2013-02-25 19:00:00,
2013-02-25 14:15:00,48.2,7.9,30.15,SW,216,6.0,6.0,19,0.00,,FEW041,0.00,VWS V14.00,2013-02-25 19:15:00,
2013-02-25 14:30:00,46.9,6.8,30.15,SW,216,6.0,6.0,19,0.00,,FEW041,0.00,VWS V14.00,2013-02-25 19:30:00,
2013-02-25 14:45:00,50.0,9.4,30.15,SW,216,6.0,6.0,19,0.00,,FEW041,0.00,VWS V14.00,2013-02-25 19:45:00,
2013-02-25 15:00:00,48.2,7.9,30.15,SW,216,6.0,6.0,19,0.00,,SCT048,0.00,VWS V14.00,2013-02-25 20:00:00,
2013-02-25 15:15:00,45.7,6.9,30.15,SW,216,6.0,6.0,20,0.00,,SCT048,0.00,VWS V14.00,2013-02-25 20:15:00,
2013-02-25 15:30:00,47.5,7.3,30.12,SW,216,6.0,6.0,19,0.00,,SCT048,0.00,VWS V14.00,2013-02-25 20:30:00,
2013-02-25 15:45:00,46.0,7.2,30.12,SW,216,6.0,6.0,20,0.00,,CLR,0.00,VWS V14.00,2013-02-25 20:45:00,
2013-02-25 16:00:00,46.2,7.4,30.12,SW,216,6.0,6.0,20,0.00,,CLR,0.00,VWS V14.00,2013-02-25 21:00:00,
2013-02-25 16:15:00,45.5,6.8,30.12,SW,216,6.0,6.0,20,0.00,,CLR,0.00,VWS V14.00,2013-02-25 21:15:00,
2013-02-25 16:30:00,44.2,5.7,30.15,SW,216,6.0,6.0,20,0.00,,CLR,0.00,VWS V14.00,2013-02-25 21:30:00,
2013-02-25 16:45:00,44.2,5.7,30.15,SW,216,6.0,6.0,20,0.00,,CLR,0.00,VWS V14.00,2013-02-25 21:45:00,
2013-02-25 17:00:00,43.9,5.4,30.15,SW,216,6.0,6.0,20,0.00,,CLR,0.00,VWS V14.00,2013-02-25 22:00:00,
2013-02-25 17:15:00,43.3,5.0,30.15,SW,216,6.0,6.0,20,0.00,,CLR,0.00,VWS V14.00,2013-02-25 22:15:00,
2013-02-25 17:30:00,42.4,5.3,30.15,SW,216,6.0,6.0,21,0.00,,CLR,0.00,VWS V14.00,2013-02-25 22:30:00,
2013-02-25 17:45:00,41.2,4.2,30.15,SW,216,6.0,6.0,21,0.00,,CLR,0.00,VWS V14.00,2013-02-25 22:45:00,
2013-02-25 18:01:00,38.1,1.6,30.15,SW,216,6.0,6.0,21,0.00,,CLR,0.00,VWS V14.00,2013-02-25 23:01:00,
2013-02-25 18:16:00,36.0,2.7,30.15,SW,216,6.0,6.0,24,0.00,,CLR,0.00,VWS V14.00,2013-02-25 23:16:00,
2013-02-25 18:30:00,34.5,6.3,30.18,SW,216,6.0,6.0,30,0.00,,CLR,0.00,VWS V14.00,2013-02-25 23:30:00,
2013-02-25 18:46:00,33.8,6.4,30.18,SW,216,6.0,6.0,31,0.00,,CLR,0.00,VWS V14.00,2013-02-25 23:46:00,
2013-02-25 19:01:00,33.1,7.1,30.18,SW,216,6.0,6.0,33,0.00,,CLR,0.00,VWS V14.00,2013-02-26 00:01:00,
2013-02-25 19:15:00,32.4,6.5,30.18,SW,216,6.0,6.0,33,0.00,,CLR,0.00,VWS V14.00,2013-02-26 00:15:00,
2013-02-25 19:31:00,31.8,6.0,30.18,SW,216,6.0,6.0,33,0.00,,CLR,0.00,VWS V14.00,2013-02-26 00:31:00,
2013-02-25 19:45:00,31.5,5.7,30.18,SW,216,6.0,6.0,33,0.00,,CLR,0.00,VWS V14.00,2013-02-26 00:45:00,
2013-02-25 20:00:00,30.4,5.4,30.18,SW,216,6.0,6.0,34,0.00,,CLR,0.00,VWS V14.00,2013-02-26 01:00:00,
2013-02-25 20:15:00,30.4,6.6,30.18,SW,216,6.0,6.0,36,0.00,,CLR,0.00,VWS V14.00,2013-02-26 01:15:00,
2013-02-25 20:30:00,30.0,6.3,30.18,SW,216,6.0,6.0,36,0.00,,CLR,0.00,VWS V14.00,2013-02-26 01:30:00,
2013-02-25 20:45:00,29.3,6.9,30.18,SW,216,6.0,6.0,38,0.00,,CLR,0.00,VWS V14.00,2013-02-26 01:45:00,
2013-02-25 21:00:00,29.3,8.5,30.18,SW,216,6.0,6.0,41,0.00,,CLR,0.00,VWS V14.00,2013-02-26 02:00:00,
2013-02-25 21:15:00,29.3,8.5,30.18,SW,216,6.0,6.0,41,0.00,,CLR,0.00,VWS V14.00,2013-02-26 02:15:00,
2013-02-25 21:30:00,28.6,7.9,30.21,SW,216,6.0,6.0,41,0.00,,CLR,0.00,VWS V14.00,2013-02-26 02:30:00,
2013-02-25 21:45:00,28.4,8.2,30.18,SW,216,6.0,6.0,42,0.00,,CLR,0.00,VWS V14.00,2013-02-26 02:45:00,
2013-02-25 22:00:00,27.5,7.4,30.18,SW,216,6.0,6.0,42,0.00,,CLR,0.00,VWS V14.00,2013-02-26 03:00:00,
2013-02-25 22:15:00,27.3,7.8,30.18,SW,216,6.0,6.0,43,0.00,,CLR,0.00,VWS V14.00,2013-02-26 03:15:00,
2013-02-25 22:30:00,27.1,8.1,30.18,SW,216,6.0,6.0,44,0.00,,CLR,0.00,VWS V14.00,2013-02-26 03:30:00,
2013-02-25 22:45:00,27.1,8.1,30.18,SW,216,6.0,6.0,44,0.00,,CLR,0.00,VWS V14.00,2013-02-26 03:45:00,
2013-02-25 23:00:00,27.1,8.1,30.18,SW,216,6.0,6.0,44,0.00,,CLR,0.00,VWS V14.00,2013-02-26 04:00:00,
2013-02-25 23:15:00,26.6,7.6,30.18,SW,216,6.0,6.0,44,0.00,,CLR,0.00,VWS V14.00,2013-02-26 04:15:00,
2013-02-25 23:30:00,26.4,7.5,30.18,SW,216,6.0,6.0,44,0.00,,CLR,0.00,VWS V14.00,2013-02-26 04:30:00,
2013-02-25 23:45:00,26.1,7.6,30.18,SW,216,6.0,6.0,45,0.00,,CLR,0.00,VWS V14.00,2013-02-26 04:45:00,